Saturday, January 20, 2018, 3:00 PM GMT
Back to Local

CWPD, Parc Des Laurentid

Location: , , Canada Lat: 47.567
Local Time: 3:00 PM GMT (15:00 GMT) Lon: -71.233
Time Zone: GMT Elev: 2634 ft

Show me the last for .
Show Coded

Time T Td Feel RH Dir Speed Gust Alt SLP Vis Weather Sky Remarks
2018-01-20 14:00 23 23 13 100 200° 8 - - 29.31 0 None
2018-01-20 13:00 21 21 6 100 210° 10 21 - 29.30 0 1-hr Precip Total: 0.04"
2018-01-20 12:00 21 21 6 100 200° 10 18 - 29.30 0 None
2018-01-20 11:00 20 20 5 100 200° 10 18 - 29.28 0 None
2018-01-20 10:00 20 20 3 100 200° 12 21 - 29.28 0 1-hr Precip Total: 0.05"
2018-01-20 09:00 19 19 3 100 200° 13 21 - 29.30 0 Pressure falling rapidly
1-hr Precip Total: 0.07"
2018-01-20 08:00 19 19 8 99 190° 9 - - 29.38 0 None
2018-01-20 06:00 19 19 10 99 190° 7 - - 29.44 0 None
2018-01-20 05:00 18 18 2 100 190° 9 18 - 29.49 0 None
2018-01-20 04:00 18 18 2 99 190° 9 20 - 29.54 0 None
2018-01-20 03:00 17 17 9 99 190° 6 - - 29.59 0 None
2018-01-20 02:00 16 16 7 98 190° 7 - - 29.61 0 None
2018-01-20 01:00 16 16 6 99 180° 7 - - 29.66 0 None
2018-01-20 00:00 16 16 6 99 200° 7 - - 29.70 0 None
2018-01-19 23:00 15 15 5 98 200° 7 - - 29.70 0 None
2018-01-19 22:00 15 15 6 99 200° 7 - - 29.70 0 None
2018-01-19 20:00 17 19 8 105 200° 7 - - 29.72 0 None
2018-01-19 19:00 17 16 8 97 210° 6 - - 29.74 0 None
2018-01-19 18:00 16 16 7 98 200° 6 - - 29.77 0 None
2018-01-19 17:00 16 16 7 99 200° 6 - - 29.79 0 None
2018-01-19 16:00 16 15 10 96 190° 3 - - 29.80 0 None

Support USWX by starting your Amazon purchase here.